Terminal Aerodrome Forecast
Issued by NWS

Home | Current Version | Previous Version | Text Only | Print | Product List | Glossary On
Versions: 1 2 3 4 5 6 7 8 9 10 11 12 13 14 15 16 17 18 19 20 21 22 23 24 25 26 27 28 29 30
000
FTUS44 KOUN 212320
TAFHBR
TAF
KHBR 212320Z 2200/2224 17012KT P6SM FEW008
     FM220100 18011KT 1SM BR OVC004
     FM221200 34015KT P6SM BKN150
     FM221600 33020G30KT P6SM FEW150=

USA.gov is the U.S. government's official web portal to all federal, state and local government web resources and services.